Time;durP1;ratioP1;P1;durP2;ratioP2;P2;SDS_P1;SDS_P2;PMS_P1;PMS_P2;Temp;Humidity;BMP_temperature;BMP_pressure;BME280_temperature;BME280_humidity;BME280_pressure;Samples;Min_cycle;Max_cycle;Signal;HPM_P1;HPM_P2
2023/08/12 00:04:20;;;;;;;8.05;3.90;;;;;;;-145.68;70.39;73503.78;10419035;28;20227;-70
2023/08/12 00:09:20;;;;;;;13.18;4.03;;;;;;;-145.68;69.83;73501.78;10418911;28;20224;-70
2023/08/12 00:14:21;;;;;;;5.97;3.47;;;;;;;-145.68;69.83;73513.78;10418684;28;20279;-70
2023/08/12 00:19:21;;;;;;;8.63;3.78;;;;;;;-145.68;69.72;73511.78;10418634;28;20189;-70
2023/08/12 00:24:22;;;;;;;7.22;3.50;;;;;;;-145.68;70.08;73517.78;10419490;28;20262;-70
2023/08/12 00:29:22;;;;;;;8.38;4.10;;;;;;;-145.68;69.70;73509.78;10418293;28;20222;-70
2023/08/12 00:34:22;;;;;;;5.45;3.42;;;;;;;-145.68;69.90;73507.78;10418347;28;20212;-70
2023/08/12 00:39:23;;;;;;;8.10;3.42;;;;;;;-145.68;70.24;73519.78;10417904;28;20191;-69
2023/08/12 00:44:23;;;;;;;6.88;3.75;;;;;;;-145.68;70.74;73525.78;10417765;28;20213;-70
2023/08/12 00:49:24;;;;;;;11.20;3.58;;;;;;;-145.68;70.24;73507.78;10417470;28;20738;-70
2023/08/12 00:54:26;;;;;;;8.77;3.67;;;;;;;-145.68;69.48;73499.78;10417147;28;20733;-70
2023/08/12 00:59:26;;;;;;;5.22;3.17;;;;;;;-145.68;69.33;73489.81;10415835;28;20177;-70
2023/08/12 01:04:27;;;;;;;6.20;3.25;;;;;;;-145.68;68.87;73485.81;10415298;28;20208;-70
2023/08/12 01:09:27;;;;;;;4.95;3.65;;;;;;;-145.68;68.86;73497.78;10416784;28;20219;-70
2023/08/12 01:14:52;;;;;;;6.95;2.90;;;;;;;-145.68;69.22;73507.78;10416316;28;20237;-70
2023/08/12 01:19:53;;;;;;;5.97;3.30;;;;;;;-145.68;68.65;73489.81;10417110;28;20185;-70
2023/08/12 01:24:55;;;;;;;6.75;3.40;;;;;;;-145.68;68.92;73497.78;10414544;28;20216;-69
2023/08/12 01:29:57;;;;;;;6.35;2.90;;;;;;;-145.68;68.76;73497.78;10414715;28;20240;-70
2023/08/12 01:35:18;;;;;;;7.43;2.92;;;;;;;-145.68;69.41;73505.78;10414465;28;20215;-70
2023/08/12 01:40:20;;;;;;;6.38;3.20;;;;;;;-145.68;69.29;73503.78;10415859;28;20255;-70
2023/08/12 01:45:20;;;;;;;6.40;3.08;;;;;;;-145.68;68.48;73479.81;10414154;28;20212;-70
2023/08/12 01:50:21;;;;;;;5.00;3.25;;;;;;;-145.68;68.59;73477.81;10415184;28;20235;-70
2023/08/12 01:55:21;;;;;;;10.38;2.88;;;;;;;-145.68;68.31;73477.81;10414925;28;20204;-70
2023/08/12 02:00:23;;;;;;;5.18;2.88;;;;;;;-145.68;68.61;73475.81;10413450;28;20665;-69
2023/08/12 02:05:23;;;;;;;3.85;2.72;;;;;;;-145.68;68.30;73461.81;10414572;28;20221;-70
2023/08/12 02:10:24;;;;;;;4.53;3.05;;;;;;;-145.68;67.77;73461.81;10413963;28;20224;-69
2023/08/12 02:15:24;;;;;;;6.00;3.10;;;;;;;-145.68;68.09;73465.81;10412482;28;20327;-69
2023/08/12 02:20:25;;;;;;;3.65;3.13;;;;;;;-145.68;68.08;73465.81;10412376;28;20200;-70
2023/08/12 02:25:26;;;;;;;6.68;2.97;;;;;;;-145.68;68.74;73471.81;10413289;28;20217;-70
2023/08/12 02:30:28;;;;;;;4.25;3.15;;;;;;;-145.68;68.99;73467.81;10413192;28;20648;-69
2023/08/12 02:35:28;;;;;;;3.15;2.38;;;;;;;-145.68;69.70;73465.81;10413267;28;20204;-70
2023/08/12 02:40:29;;;;;;;5.38;3.38;;;;;;;-145.68;70.57;73479.81;10413377;28;20196;-69
2023/08/12 02:45:30;;;;;;;6.55;3.28;;;;;;;-145.68;71.16;73479.81;10406841;28;20212;-69
2023/08/12 02:50:30;;;;;;;4.13;2.80;;;;;;;-145.68;71.53;73481.81;10370946;28;20687;-69
2023/08/12 02:55:34;;;;;;;5.05;3.25;;;;;;;-145.68;72.36;73483.81;10371855;28;20288;-69
2023/08/12 03:00:34;;;;;;;6.28;3.08;;;;;;;-145.68;74.19;73511.78;10371612;28;20207;-69
2023/08/12 03:05:35;;;;;;;5.20;2.55;;;;;;;-145.68;75.12;73517.78;10398043;28;20212;-69
2023/08/12 03:10:35;;;;;;;4.07;3.05;;;;;;;-145.68;75.51;73519.78;10411926;28;20590;-69
2023/08/12 03:15:40;;;;;;;4.45;2.65;;;;;;;-145.68;76.05;73527.78;10410616;28;20240;-69
2023/08/12 03:20:41;;;;;;;4.47;3.22;;;;;;;-145.68;76.66;73533.78;10410540;28;20242;-69
2023/08/12 03:25:41;;;;;;;4.90;2.78;;;;;;;-145.68;76.90;73531.78;10410774;28;20287;-70
2023/08/12 03:30:42;;;;;;;4.68;3.03;;;;;;;-145.68;77.37;73531.78;10411564;28;20258;-70
2023/08/12 03:35:48;;;;;;;6.45;3.20;;;;;;;-145.68;77.69;73531.78;10410089;28;20583;-69
2023/08/12 03:40:50;;;;;;;4.70;2.70;;;;;;;-145.68;78.02;73531.78;10410315;28;20210;-70
2023/08/12 03:45:52;;;;;;;8.25;3.13;;;;;;;-145.68;78.38;73525.78;10409917;28;20578;-69
2023/08/12 03:50:54;;;;;;;5.07;3.55;;;;;;;-145.68;78.47;73515.78;10409789;28;20690;-69
2023/08/12 03:55:54;;;;;;;4.18;3.00;;;;;;;-145.68;79.46;73521.78;10409754;28;20208;-69
2023/08/12 04:00:55;;;;;;;5.95;3.45;;;;;;;-145.68;81.07;73541.78;10409413;28;20206;-69
2023/08/12 04:05:55;;;;;;;6.63;3.10;;;;;;;-145.68;83.24;73561.75;10410970;28;20213;-69
2023/08/12 04:10:56;;;;;;;5.95;3.33;;;;;;;-145.68;85.68;73565.75;10409498;28;20593;-69
2023/08/12 04:15:56;;;;;;;4.00;3.13;;;;;;;-145.68;84.83;73543.78;10409282;28;20236;-68
2023/08/12 04:20:56;;;;;;;3.33;3.00;;;;;;;-145.68;84.28;73529.78;10410631;28;20971;-69
2023/08/12 04:25:57;;;;;;;6.03;3.08;;;;;;;-145.68;83.02;73523.78;10409237;28;20656;-68
2023/08/12 04:31:01;;;;;;;6.95;3.17;;;;;;;-145.68;84.43;73535.78;10410554;28;20266;-69
2023/08/12 04:36:01;;;;;;;4.32;3.38;;;;;;;-145.68;85.55;73527.78;10414143;28;20218;-69
2023/08/12 04:41:02;;;;;;;4.57;3.60;;;;;;;-145.68;84.54;73515.78;10416825;28;20724;-69
2023/08/12 04:46:03;;;;;;;3.33;3.03;;;;;;;-145.68;85.28;73511.78;10416395;28;20208;-69
2023/08/12 04:51:05;;;;;;;4.90;2.90;;;;;;;-145.68;85.09;73495.78;10416359;28;20216;-69
2023/08/12 04:56:07;;;;;;;4.43;3.10;;;;;;;-145.68;84.23;73465.81;10416073;28;20244;-69
2023/08/12 05:01:08;;;;;;;4.70;3.33;;;;;;;-145.68;83.13;73445.81;10416057;28;20188;-68
2023/08/12 05:06:08;;;;;;;4.32;3.10;;;;;;;-145.68;81.75;73431.84;10417125;28;20559;-68
2023/08/12 05:11:09;;;;;;;3.55;3.20;;;;;;;-145.68;80.85;73423.84;10415317;28;20294;-69
2023/08/12 05:16:10;;;;;;;5.95;2.90;;;;;;;-145.68;80.31;73409.84;10435592;22;20745;-71
2023/08/12 05:21:11;;;;;;;5.45;3.22;;;;;;;-145.68;78.65;73359.88;10412956;28;20192;-73
2023/08/12 05:26:12;;;;;;;2.95;2.75;;;;;;;-145.68;75.92;73303.91;10416099;28;20211;-73
2023/08/12 05:31:13;;;;;;;3.40;2.78;;;;;;;-145.68;74.01;73261.94;10416141;28;20245;-73
2023/08/12 05:36:13;;;;;;;4.07;2.75;;;;;;;-145.68;72.03;73205.97;10410389;28;20665;-73
2023/08/12 05:41:13;;;;;;;4.03;3.08;;;;;;;-145.68;69.27;73148.03;10374781;28;20269;-73
2023/08/12 05:46:14;;;;;;;7.55;2.97;;;;;;;-145.68;65.78;73094.06;10394157;28;20283;-73
2023/08/12 05:51:14;;;;;;;8.23;2.88;;;;;;;-145.68;64.58;73040.09;10415355;28;20213;-73
2023/08/12 05:56:15;;;;;;;3.47;2.47;;;;;;;-145.68;63.38;72988.13;10415001;28;20216;-72
2023/08/12 06:01:15;;;;;;;6.85;2.88;;;;;;;-145.68;60.95;72916.19;10414142;28;20263;-73
2023/08/12 06:06:15;;;;;;;3.75;2.47;;;;;;;-145.68;57.59;72780.28;10414737;28;20243;-73
2023/08/12 06:11:16;;;;;;;3.38;2.20;;;;;;;-145.68;53.56;72634.41;10414328;28;20307;-71
2023/08/12 06:16:16;;;;;;;4.35;2.33;;;;;;;-145.68;50.87;72540.50;10394119;28;20600;-70
2023/08/12 06:21:16;;;;;;;5.18;2.65;;;;;;;-145.68;52.15;72630.41;10391234;28;20189;-71
2023/08/12 06:26:17;;;;;;;2.65;2.15;;;;;;;-145.68;49.30;72500.53;10378180;28;20212;-70
2023/08/12 06:31:17;;;;;;;3.13;2.30;;;;;;;-145.68;48.54;72492.53;10369096;28;20291;-71
2023/08/12 06:36:18;;;;;;;4.95;2.85;;;;;;;-145.68;50.56;72610.44;10367941;28;20227;-71
2023/08/12 06:41:18;;;;;;;3.10;2.45;;;;;;;-145.68;49.88;72504.53;10367342;28;20185;-71
2023/08/12 06:46:18;;;;;;;4.93;2.45;;;;;;;-145.68;46.11;72322.69;10368545;28;20308;-70
2023/08/12 06:51:19;;;;;;;4.65;2.70;;;;;;;-145.68;47.14;72400.59;10368812;28;20725;-73
2023/08/12 06:56:19;;;;;;;6.13;2.22;;;;;;;-145.68;46.86;72368.63;10368125;28;20638;-70
2023/08/12 07:01:19;;;;;;;3.53;2.10;;;;;;;-145.68;46.36;72324.69;10367988;28;20593;-71
2023/08/12 07:06:20;;;;;;;3.10;2.22;;;;;;;-145.68;46.31;72424.59;10367787;28;20233;-71
2023/08/12 07:11:20;;;;;;;3.15;2.20;;;;;;;-145.68;44.92;72318.69;10366986;28;20228;-71
2023/08/12 07:16:20;;;;;;;2.75;1.90;;;;;;;-145.68;44.55;72274.72;10367678;28;20240;-71
2023/08/12 07:21:21;;;;;;;4.70;2.00;;;;;;;-145.68;44.52;72282.72;10367650;28;20275;-71
2023/08/12 07:26:21;;;;;;;4.82;2.00;;;;;;;-145.68;43.84;72264.72;10367566;28;20775;-70
2023/08/12 07:31:22;;;;;;;3.10;2.20;;;;;;;-145.68;43.49;72212.78;10367135;28;20599;-71
2023/08/12 07:36:22;;;;;;;3.15;1.60;;;;;;;-145.68;43.57;72316.69;10367459;28;20292;-71
2023/08/12 07:41:22;;;;;;;2.65;1.90;;;;;;;-145.68;42.37;72166.81;10367192;28;20181;-70
2023/08/12 07:46:23;;;;;;;2.10;1.65;;;;;;;-145.68;42.43;72242.75;10363944;28;20363;-70
2023/08/12 07:51:23;;;;;;;1.85;1.60;;;;;;;-145.68;41.97;72276.72;10366854;28;20703;-71
2023/08/12 07:56:23;;;;;;;1.67;1.58;;;;;;;-145.68;42.17;72278.72;10367093;28;20267;-70
2023/08/12 08:01:24;;;;;;;2.55;1.92;;;;;;;-145.68;42.77;72242.75;10366818;28;20185;-69
2023/08/12 08:06:24;;;;;;;2.20;1.65;;;;;;;-145.68;41.18;72156.84;10369440;28;20254;-70
2023/08/12 08:11:25;;;;;;;2.15;1.75;;;;;;;-145.68;40.84;72228.75;10372932;28;20221;-68
2023/08/12 08:16:25;;;;;;;2.03;1.60;;;;;;;-145.68;40.98;72184.81;10372858;28;20233;-69
2023/08/12 08:21:25;;;;;;;3.40;1.50;;;;;;;-145.68;40.62;72188.81;10374815;28;20185;-70
2023/08/12 08:26:26;;;;;;;4.32;1.73;;;;;;;-145.68;41.31;72186.81;10372524;28;20213;-70
2023/08/12 08:31:27;;;;;;;10.43;1.65;;;;;;;-145.68;39.95;72170.81;10373814;28;20213;-69
2023/08/12 08:36:27;;;;;;;2.80;1.75;;;;;;;-145.68;40.50;72158.84;10373727;28;20224;-70
2023/08/12 08:41:30;;;;;;;1.60;1.30;;;;;;;-145.68;39.67;72204.78;10373508;28;20189;-71
2023/08/12 08:46:30;;;;;;;2.70;1.55;;;;;;;-145.68;40.02;72202.78;10373527;28;20267;-70
2023/08/12 08:51:34;;;;;;;2.50;1.80;;;;;;;-145.68;39.79;72174.81;10372045;28;20723;-71
2023/08/12 08:56:35;;;;;;;3.30;1.38;;;;;;;-145.68;39.33;72174.81;10372987;28;20754;-70
2023/08/12 09:01:36;;;;;;;2.90;1.70;;;;;;;-145.68;39.77;72164.81;10372739;28;20225;-71
2023/08/12 09:06:38;;;;;;;4.28;1.60;;;;;;;-145.68;39.29;72202.78;10372610;28;20213;-71
2023/08/12 09:11:40;;;;;;;1.95;1.42;;;;;;;-145.68;38.57;72176.81;10372416;28;20224;-69
2023/08/12 09:16:40;;;;;;;3.08;1.65;;;;;;;-145.68;39.32;72082.91;10370563;28;20380;-71
2023/08/12 09:21:42;;;;;;;5.30;1.60;;;;;;;-145.68;38.29;72130.84;10369953;28;20590;-69
2023/08/12 09:26:42;;;;;;;3.22;1.55;;;;;;;-145.68;38.57;72092.91;10370257;28;20510;-69
2023/08/12 09:31:43;;;;;;;2.33;1.40;;;;;;;-145.68;37.65;72056.94;10371648;28;20227;-69
2023/08/12 09:36:43;;;;;;;3.38;1.58;;;;;;;-145.68;38.31;72100.88;10371984;28;20221;-70
2023/08/12 09:41:44;;;;;;;4.60;1.58;;;;;;;-145.68;39.04;72110.88;10371269;28;20178;-71
2023/08/12 09:46:44;;;;;;;4.55;1.55;;;;;;;-145.68;37.77;72078.91;10371525;28;20691;-70
2023/08/12 09:51:45;;;;;;;1.60;1.50;;;;;;;-145.68;38.75;72124.88;10369755;28;20320;-70
2023/08/12 09:56:48;;;;;;;3.22;1.58;;;;;;;-145.68;38.69;72090.91;10370586;28;20460;-71
2023/08/12 10:01:50;;;;;;;2.15;1.90;;;;;;;-145.68;39.83;72164.81;10370659;28;20200;-71
2023/08/12 10:06:51;;;;;;;4.80;1.95;;;;;;;-145.68;40.95;72206.78;10369184;28;20205;-71
2023/08/12 10:11:52;;;;;;;2.55;1.90;;;;;;;-145.68;40.64;72194.78;10354451;28;20604;-72
2023/08/12 10:16:53;;;;;;;3.17;2.00;;;;;;;-145.68;41.26;72218.78;10372431;28;20240;-71
2023/08/12 10:21:56;;;;;;;2.53;1.80;;;;;;;-145.68;41.36;72206.78;10371810;28;20186;-72
2023/08/12 10:26:57;;;;;;;2.28;1.83;;;;;;;-145.68;40.88;72242.75;10372335;28;20209;-72
2023/08/12 10:31:57;;;;;;;3.67;2.20;;;;;;;-145.68;41.82;72268.72;10389295;28;20228;-71
2023/08/12 10:37:01;;;;;;;4.78;2.05;;;;;;;-145.68;41.49;72288.72;10374901;28;20220;-71
2023/08/12 10:42:02;;;;;;;2.58;2.08;;;;;;;-145.68;41.24;72248.75;10412425;28;20744;-71
2023/08/12 10:47:08;;;;;;;3.83;2.38;;;;;;;-145.68;41.45;72230.75;10412683;28;20212;-71
2023/08/12 10:52:26;;;;;;;5.07;2.38;;;;;;;-145.68;41.37;72262.72;10412491;28;20224;-71
2023/08/12 10:57:39;;;;;;;4.28;2.58;;;;;;;-145.68;42.07;72280.72;10412788;28;20212;-71
2023/08/12 11:02:40;;;;;;;3.45;2.70;;;;;;;-145.68;43.56;72278.72;10412574;28;20192;-71
2023/08/12 11:07:43;;;;;;;4.30;2.88;;;;;;;-145.68;43.26;72226.75;10410816;28;20242;-72
2023/08/12 11:12:52;;;;;;;5.13;2.50;;;;;;;-145.68;43.54;72228.75;10412402;28;20197;-71
2023/08/12 11:17:54;;;;;;;4.63;2.47;;;;;;;-145.68;43.11;72210.78;10432502;22;20722;-67
2023/08/12 11:22:54;;;;;;;3.45;2.72;;;;;;;-145.68;43.16;72264.72;10410024;28;20238;-68
2023/08/12 11:27:56;;;;;;;5.10;2.72;;;;;;;-145.68;43.64;72244.75;10411606;28;20350;-67
2023/08/12 11:32:56;;;;;;;4.55;2.75;;;;;;;-145.68;43.21;72276.72;10411932;28;20628;-68
2023/08/12 11:37:58;;;;;;;5.32;2.50;;;;;;;-145.68;44.36;72242.75;10411362;28;20216;-68
2023/08/12 11:42:58;;;;;;;7.15;2.67;;;;;;;-145.68;44.42;72258.75;10410946;28;20192;-69
2023/08/12 11:47:59;;;;;;;4.25;2.50;;;;;;;-145.68;44.72;72232.75;10411536;28;20212;-69
2023/08/12 11:52:59;;;;;;;7.72;2.70;;;;;;;-145.68;43.34;72184.81;10411438;28;20639;-70
2023/08/12 11:57:59;;;;;;;7.65;2.72;;;;;;;-145.68;43.76;72208.78;10411104;28;20548;-69
2023/08/12 12:03:00;;;;;;;6.30;2.75;;;;;;;-145.68;44.70;72234.75;10411169;28;20184;-69
2023/08/12 12:08:00;;;;;;;5.15;2.70;;;;;;;-145.68;43.79;72186.81;10409490;28;20767;-70
2023/08/12 12:13:02;;;;;;;5.70;2.80;;;;;;;-145.68;44.04;72142.84;10410929;28;20184;-70
2023/08/12 12:18:03;;;;;;;4.60;2.60;;;;;;;-145.68;43.62;72060.94;10410477;28;20607;-70
2023/08/12 12:23:07;;;;;;;3.15;2.50;;;;;;;-145.68;41.31;71937.03;10411020;28;20204;-69
2023/08/12 12:28:07;;;;;;;3.70;2.90;;;;;;;-145.68;41.56;72024.97;10410478;28;20702;-69
2023/08/12 12:33:07;;;;;;;3.90;2.78;;;;;;;-145.68;41.56;71947.03;10409227;28;20204;-70
2023/08/12 12:38:08;;;;;;;13.47;2.73;;;;;;;-145.68;40.07;71875.09;10410306;28;20204;-68
2023/08/12 12:43:08;;;;;;;4.90;2.92;;;;;;;-145.68;40.62;71877.09;10410260;28;20447;-68
2023/08/12 12:48:08;;;;;;;2.33;1.90;;;;;;;-145.68;39.07;71861.13;10410273;28;20212;-70
2023/08/12 12:53:09;;;;;;;3.27;1.70;;;;;;;-145.68;39.89;71905.06;10410238;28;20185;-69
2023/08/12 12:58:09;;;;;;;2.20;2.00;;;;;;;-145.68;39.29;71981.00;10427911;28;20447;-70
2023/08/12 13:03:10;;;;;;;3.50;2.17;;;;;;;-145.68;40.55;71983.00;10437831;28;20469;-69
2023/08/12 13:08:10;;;;;;;4.57;2.37;;;;;;;-145.68;40.40;71995.00;10435598;28;20627;-70
2023/08/12 13:13:13;;;;;;;2.10;1.73;;;;;;;-145.68;41.06;71977.00;10436253;28;20985;-69
2023/08/12 13:18:14;;;;;;;2.10;1.90;;;;;;;-145.68;40.15;71927.06;10445857;28;20507;-70
2023/08/12 13:23:14;;;;;;;4.80;2.25;;;;;;;-145.68;39.99;71917.06;10457691;28;20188;-69
2023/08/12 13:28:14;;;;;;;7.38;2.13;;;;;;;-145.68;40.10;71857.13;10457547;28;20584;-69
2023/08/12 13:33:15;;;;;;;3.63;2.38;;;;;;;-145.68;39.87;71829.16;10442931;28;20267;-68
2023/08/12 13:38:15;;;;;;;3.97;2.10;;;;;;;-145.68;40.33;71835.16;10436864;28;20244;-70
2023/08/12 13:43:15;;;;;;;3.80;2.53;;;;;;;-145.68;40.16;71837.16;10454466;28;20445;-69
2023/08/12 13:48:16;;;;;;;14.70;2.90;;;;;;;-145.68;40.41;71927.06;10456697;28;20322;-69
2023/08/12 13:53:16;;;;;;;5.53;2.70;;;;;;;-145.68;41.30;71943.03;10378098;28;20455;-69
2023/08/12 13:58:16;;;;;;;3.90;2.43;;;;;;;-145.68;41.47;71899.09;10374018;28;20448;-70
2023/08/12 14:03:17;;;;;;;5.40;2.70;;;;;;;-145.68;40.75;71889.09;10374260;28;20447;-68
2023/08/12 14:08:17;;;;;;;5.30;2.40;;;;;;;-145.68;41.69;71937.03;10372920;28;20266;-69
2023/08/12 14:13:17;;;;;;;5.70;2.83;;;;;;;-145.68;40.87;71899.09;10373970;28;20440;-70
2023/08/12 14:18:18;;;;;;;3.88;2.35;;;;;;;-145.68;40.42;71825.16;10373019;28;20714;-68
2023/08/12 14:23:18;;;;;;;4.57;2.13;;;;;;;-145.68;41.14;71913.06;10373360;28;20544;-68
2023/08/12 14:28:19;;;;;;;6.93;2.90;;;;;;;-145.68;41.72;71989.00;10372904;28;20895;-68
2023/08/12 14:33:19;;;;;;;5.23;2.30;;;;;;;-145.68;41.42;71947.03;10372708;28;20816;-69
2023/08/12 14:38:19;;;;;;;4.00;2.47;;;;;;;-145.68;41.93;71941.03;10372905;28;20867;-68
2023/08/12 14:43:20;;;;;;;4.78;2.50;;;;;;;-145.68;41.03;71891.09;10372352;28;20803;-70
2023/08/12 14:48:20;;;;;;;6.80;2.42;;;;;;;-145.68;39.46;71737.25;10372293;28;20221;-69
2023/08/12 14:53:21;;;;;;;5.03;2.50;;;;;;;-145.68;38.85;71723.25;10406893;28;20271;-68
2023/08/12 14:58:21;;;;;;;9.80;2.67;;;;;;;-145.68;38.61;71647.34;10453949;28;20249;-69
2023/08/12 15:03:22;;;;;;;3.38;2.13;;;;;;;-145.68;36.05;71481.53;10453939;28;20198;-68
2023/08/12 15:08:22;;;;;;;3.83;1.90;;;;;;;-145.68;36.27;71477.53;10453389;28;20219;-68
2023/08/12 15:13:23;;;;;;;3.80;2.20;;;;;;;-145.68;35.89;71469.53;10453598;28;20200;-68
2023/08/12 15:18:24;;;;;;;9.25;2.20;;;;;;;-145.68;36.77;71569.44;10452897;28;20549;-68
2023/08/12 15:23:24;;;;;;;4.57;2.42;;;;;;;-145.68;38.73;71825.16;10453376;28;20654;-69
2023/08/12 15:28:24;;;;;;;4.20;2.07;;;;;;;-145.68;38.01;71753.22;10452788;28;20224;-70
2023/08/12 15:33:25;;;;;;;4.53;2.37;;;;;;;-145.68;39.31;71763.22;10452866;28;20526;-68
2023/08/12 15:38:25;;;;;;;5.70;2.53;;;;;;;-145.68;39.82;71789.19;10452573;28;20640;-69
2023/08/12 15:43:26;;;;;;;2.70;2.28;;;;;;;-145.68;40.00;71809.16;10452760;28;20446;-69
2023/08/12 15:48:26;;;;;;;4.63;2.17;;;;;;;-145.68;40.07;71757.22;10452350;28;20219;-69
2023/08/12 15:53:26;;;;;;;3.88;2.20;;;;;;;-145.68;39.89;71705.28;10452496;28;20662;-69
2023/08/12 15:58:27;;;;;;;6.50;2.20;;;;;;;-145.68;40.80;71817.16;10452204;28;20212;-68
2023/08/12 16:03:28;;;;;;;6.03;2.83;;;;;;;-145.68;42.20;71919.06;10452221;28;20195;-69
2023/08/12 16:08:28;;;;;;;12.95;3.20;;;;;;;-145.68;43.55;71983.00;10452110;28;20482;-68
2023/08/12 16:13:29;;;;;;;5.85;2.85;;;;;;;-145.68;43.87;71993.00;10451881;28;20207;-69
2023/08/12 16:18:29;;;;;;;3.72;2.70;;;;;;;-145.68;44.27;71991.00;10451640;28;20322;-69
2023/08/12 16:23:31;;;;;;;11.38;2.92;;;;;;;-145.68;44.78;72008.97;10451609;28;20180;-69
2023/08/12 16:28:31;;;;;;;4.18;2.40;;;;;;;-145.68;45.43;72024.97;10451986;28;20277;-69
2023/08/12 16:33:32;;;;;;;5.60;2.58;;;;;;;-145.68;46.39;72026.97;10459767;28;20349;-69
2023/08/12 16:38:32;;;;;;;6.68;2.50;;;;;;;-145.68;46.67;72050.94;10436299;28;20204;-68
2023/08/12 16:43:33;;;;;;;30.50;21.88;;;;;;;-145.68;46.81;72212.78;10439092;28;20193;-70
2023/08/12 16:48:34;;;;;;;5.63;3.00;;;;;;;-145.68;64.71;72720.34;10427936;28;20220;-69
2023/08/12 16:53:34;;;;;;;5.45;4.15;;;;;;;-145.68;93.19;72894.22;10452639;28;20191;-69
2023/08/12 16:58:34;;;;;;;8.38;4.43;;;;;;;-145.68;100.00;72976.16;10459243;28;20207;-69
2023/08/12 17:03:35;;;;;;;4.35;2.95;;;;;;;-145.68;100.00;72988.13;10426361;28;20198;-70
2023/08/12 17:08:35;;;;;;;3.00;1.92;;;;;;;-145.68;100.00;72984.13;10395722;28;20235;-69
2023/08/12 17:13:36;;;;;;;2.20;1.80;;;;;;;-145.68;100.00;73004.13;10418158;28;20205;-69
2023/08/12 17:18:37;;;;;;;6.63;2.30;;;;;;;-145.68;100.00;73016.13;10425641;22;20264;-67
2023/08/12 17:23:37;;;;;;;13.38;8.80;;;;;;;-145.68;100.00;73022.13;10374511;28;20229;-68
2023/08/12 17:28:37;;;;;;;7.85;6.72;;;;;;;-145.68;100.00;73038.09;10374878;28;20315;-69
2023/08/12 17:33:38;;;;;;;8.45;6.32;;;;;;;-145.68;100.00;73046.09;10374924;28;20212;-69
2023/08/12 17:38:39;;;;;;;5.88;4.10;;;;;;;-145.68;100.00;73056.09;10375056;28;20205;-68
2023/08/12 17:43:43;;;;;;;11.18;5.07;;;;;;;-145.68;100.00;73064.09;10374151;28;20201;-68
2023/08/12 17:48:43;;;;;;;5.20;2.38;;;;;;;-145.68;100.00;73068.06;10374798;28;20217;-68
2023/08/12 17:53:45;;;;;;;3.22;2.67;;;;;;;-145.68;100.00;73056.09;10374842;28;20539;-68
2023/08/12 17:58:45;;;;;;;2.75;2.45;;;;;;;-145.68;100.00;73050.09;10374572;28;20213;-68
2023/08/12 18:03:46;;;;;;;2.05;1.85;;;;;;;-145.68;100.00;73032.09;10374349;28;20207;-68
2023/08/12 18:08:46;;;;;;;4.45;1.70;;;;;;;-145.68;100.00;73028.09;10374563;28;20240;-69
2023/08/12 18:13:47;;;;;;;2.20;1.90;;;;;;;-145.68;100.00;72998.13;10374127;28;20200;-70
2023/08/12 18:18:47;;;;;;;2.25;1.60;;;;;;;-145.68;100.00;72988.13;10373822;28;20588;-70
2023/08/12 18:23:48;;;;;;;1.35;1.25;;;;;;;-145.68;100.00;72996.13;10373706;28;20541;-70
2023/08/12 18:28:48;;;;;;;1.30;1.15;;;;;;;-145.68;100.00;73014.13;10373275;28;20228;-69
2023/08/12 18:33:48;;;;;;;3.85;1.15;;;;;;;-145.68;100.00;73014.13;10373518;28;20199;-70
2023/08/12 18:38:49;;;;;;;3.60;1.55;;;;;;;-145.68;100.00;73024.13;10373032;28;20217;-69
2023/08/12 18:43:49;;;;;;;1.50;1.13;;;;;;;-145.68;100.00;73022.13;10373032;28;20563;-69
2023/08/12 18:48:49;;;;;;;1.52;1.08;;;;;;;-145.68;100.00;73024.13;10372614;28;20630;-68
2023/08/12 18:53:50;;;;;;;2.13;1.50;;;;;;;-145.68;100.00;73038.09;10372232;28;20779;-68
2023/08/12 18:58:53;;;;;;;3.33;2.75;;;;;;;-145.68;100.00;73034.09;10371704;28;20708;-68
2023/08/12 19:03:53;;;;;;;1.52;1.30;;;;;;;-145.68;100.00;73040.09;10382022;28;20613;-68
2023/08/12 19:08:54;;;;;;;2.95;1.40;;;;;;;-145.68;100.00;73040.09;10423968;28;20220;-68
2023/08/12 19:13:54;;;;;;;3.88;2.47;;;;;;;-145.68;100.00;73028.09;10431149;28;20195;-68
2023/08/12 19:18:55;;;;;;;4.15;2.60;;;;;;;-145.68;100.00;73036.09;10431762;28;20236;-68
2023/08/12 19:23:55;;;;;;;1.20;1.10;;;;;;;-145.68;100.00;73036.09;10430931;28;20280;-68
2023/08/12 19:28:55;;;;;;;3.28;1.75;;;;;;;-145.68;100.00;73042.09;10431063;28;20212;-69
2023/08/12 19:33:56;;;;;;;1.40;1.20;;;;;;;-145.68;100.00;73044.09;10432372;28;20191;-69
2023/08/12 19:38:56;;;;;;;2.88;1.60;;;;;;;-145.68;100.00;73062.09;10431932;28;20204;-68
2023/08/12 19:43:58;;;;;;;5.78;1.50;;;;;;;-145.68;100.00;73084.06;10429632;28;20192;-70
2023/08/12 19:48:58;;;;;;;1.65;1.48;;;;;;;-145.68;100.00;73102.06;10427650;28;20212;-69
2023/08/12 19:53:59;;;;;;;2.10;1.75;;;;;;;-145.68;100.00;73112.03;10430469;28;20269;-69
2023/08/12 19:58:59;;;;;;;1.80;1.40;;;;;;;-145.68;100.00;73096.06;10431794;28;20209;-70
2023/08/12 20:04:00;;;;;;;4.20;1.55;;;;;;;-145.68;100.00;73100.06;10430160;28;20662;-69
2023/08/12 20:09:00;;;;;;;1.77;1.60;;;;;;;-145.68;100.00;73100.06;10423370;28;20588;-70
2023/08/12 20:14:00;;;;;;;1.98;1.60;;;;;;;-145.68;100.00;73112.03;10419250;28;20232;-69
2023/08/12 20:19:01;;;;;;;1.67;1.58;;;;;;;-145.68;100.00;73116.03;10412549;28;20247;-68
2023/08/12 20:24:01;;;;;;;2.40;1.40;;;;;;;-145.68;100.00;73126.03;10404487;28;20208;-68
2023/08/12 20:29:01;;;;;;;2.40;1.45;;;;;;;-145.68;100.00;73138.03;10377583;28;20217;-68
2023/08/12 20:34:02;;;;;;;1.48;1.35;;;;;;;-145.68;100.00;73142.03;10376654;28;20213;-68
2023/08/12 20:39:03;;;;;;;3.83;1.40;;;;;;;-145.68;100.00;73160.00;10394735;28;20581;-69
2023/08/12 20:44:03;;;;;;;3.17;2.67;;;;;;;-145.68;100.00;73144.03;10418151;28;20271;-69
2023/08/12 20:49:04;;;;;;;2.05;1.50;;;;;;;-145.68;100.00;73168.00;10406120;28;20228;-69
2023/08/12 20:54:04;;;;;;;1.50;1.40;;;;;;;-145.68;100.00;73176.00;10377353;28;20535;-69
2023/08/12 20:59:04;;;;;;;6.75;3.10;;;;;;;-145.68;100.00;73164.00;10376937;28;20593;-69
2023/08/12 21:04:05;;;;;;;1.67;1.40;;;;;;;-145.68;100.00;73156.00;10376717;28;20204;-69
2023/08/12 21:09:05;;;;;;;3.10;1.70;;;;;;;-145.68;100.00;73148.03;10376148;28;20244;-69
2023/08/12 21:14:06;;;;;;;6.68;4.13;;;;;;;-145.68;100.00;73166.00;10376763;28;20201;-69
2023/08/12 21:19:07;;;;;;;4.38;3.03;;;;;;;-145.68;100.00;73174.00;10375469;28;20315;-70
2023/08/12 21:24:08;;;;;;;4.15;2.28;;;;;;;-145.68;100.00;73172.00;10375160;28;20208;-69
2023/08/12 21:29:08;;;;;;;3.75;2.03;;;;;;;-145.68;100.00;73190.00;10375675;28;20315;-70
2023/08/12 21:34:08;;;;;;;3.00;2.15;;;;;;;-145.68;100.00;73194.00;10375810;28;20284;-69
2023/08/12 21:39:09;;;;;;;2.28;1.65;;;;;;;-145.68;100.00;73207.97;10398782;28;20231;-69
2023/08/12 21:44:09;;;;;;;7.97;2.15;;;;;;;-145.68;100.00;73211.97;10415610;28;20346;-70
2023/08/12 21:49:09;;;;;;;4.35;2.20;;;;;;;-145.68;100.00;73249.94;10395329;28;20221;-70
2023/08/12 21:54:10;;;;;;;1.70;1.50;;;;;;;-145.68;100.00;73263.94;10375020;28;20332;-70
2023/08/12 21:59:10;;;;;;;1.98;1.58;;;;;;;-145.68;100.00;73273.94;10375279;28;20213;-70
2023/08/12 22:04:11;;;;;;;2.50;1.60;;;;;;;-145.68;100.00;73279.94;10374615;28;20243;-70
2023/08/12 22:09:11;;;;;;;9.90;2.25;;;;;;;-145.68;100.00;73287.94;10374790;28;20213;-70
2023/08/12 22:14:11;;;;;;;4.88;2.08;;;;;;;-145.68;100.00;73309.91;10374239;28;20197;-70
2023/08/12 22:19:12;;;;;;;5.30;1.50;;;;;;;-145.68;100.00;73311.91;10374571;28;20248;-69
2023/08/12 22:24:12;;;;;;;2.13;1.48;;;;;;;-145.68;100.00;73329.91;10373915;28;20208;-69
2023/08/12 22:29:14;;;;;;;2.55;1.58;;;;;;;-145.68;100.00;73309.91;10373264;28;20216;-70
2023/08/12 22:34:15;;;;;;;2.45;1.80;;;;;;;-145.68;100.00;73313.91;10373611;28;20220;-70
2023/08/12 22:39:16;;;;;;;5.57;1.85;;;;;;;-145.68;100.00;73319.91;10373077;28;20210;-70
2023/08/12 22:44:16;;;;;;;3.80;1.70;;;;;;;-145.68;100.00;73351.88;10373082;28;20578;-69